Terminal Aerodrome Forecast
Issued by NWS

Home | Current Version | Previous Version | Text Only | Print | Product List | Glossary On
Versions: 1 2 3 4 5 6 7 8 9 10 11 12 13
954
FTUS42 TJSJ 290550
TAFKPK
TAF
TKPK 290550Z 2906/3006 09008KT P6SM VCSH SCT018 SCT020
     FM291330 09015KT P6SM VCSH FEW020 SCT022 SCT050
     FM292300 09008KT P6SM SCT020 SCT022 SCT100
      AMD NOT SKED TIL 291100=

USA.gov is the U.S. government's official web portal to all federal, state and local government web resources and services.